Time;durP1;ratioP1;P1;durP2;ratioP2;P2;SDS_P1;SDS_P2;PMS_P1;PMS_P2;Temp;Humidity;BMP_temperature;BMP_pressure;BME280_temperature;BME280_humidity;BME280_pressure;Samples;Min_cycle;Max_cycle;Signal;HPM_P1;HPM_P2
2023/03/12 00:00:54;;;;;;;9.23;6.20;;;;;;;2.57;52.75;98487.44;4433583;32;33053;-88
2023/03/12 00:03:22;;;;;;;8.48;5.78;;;;;;;2.07;53.72;98496.81;4435486;32;34077;-88
2023/03/12 00:05:50;;;;;;;8.48;5.55;;;;;;;2.21;53.20;98512.63;4421662;32;33808;-89
2023/03/12 00:08:17;;;;;;;9.23;5.65;;;;;;;2.20;53.38;98513.47;4421856;32;33554;-89
2023/03/12 00:10:45;;;;;;;8.80;5.37;;;;;;;2.44;52.13;98509.19;4437443;32;32990;-89
2023/03/12 00:13:12;;;;;;;7.12;5.28;;;;;;;2.71;51.82;98518.59;4435469;32;34027;-88
2023/03/12 00:15:40;;;;;;;7.45;4.93;;;;;;;1.94;52.40;98515.09;4434236;32;32451;-90
2023/03/12 00:18:07;;;;;;;7.37;4.45;;;;;;;2.25;51.73;98524.72;4426926;32;33906;-88
2023/03/12 00:20:35;;;;;;;7.53;4.80;;;;;;;2.58;50.29;98530.13;4450748;32;34082;-90
2023/03/12 00:23:02;;;;;;;7.22;4.68;;;;;;;2.83;49.77;98541.19;4449450;32;32933;-89
2023/03/12 00:25:30;;;;;;;6.90;4.78;;;;;;;2.61;49.68;98537.03;4421410;32;34203;-89
2023/03/12 00:27:57;;;;;;;6.70;4.03;;;;;;;2.91;48.63;98535.47;4425415;32;34446;-91
2023/03/12 00:30:27;;;;;;;7.10;4.53;;;;;;;3.08;48.16;98547.97;4451936;32;34220;-88
2023/03/12 00:32:54;;;;;;;7.53;4.70;;;;;;;2.65;48.68;98539.75;4444865;32;33878;-90
2023/03/12 00:35:22;;;;;;;6.30;4.03;;;;;;;2.97;48.43;98545.06;4436571;32;34375;-90
2023/03/12 00:37:49;;;;;;;7.37;4.37;;;;;;;2.65;49.02;98538.88;4437431;32;33891;-90
2023/03/12 00:40:17;;;;;;;7.85;4.22;;;;;;;3.03;48.38;98545.28;4437598;32;33541;-90
2023/03/12 00:42:45;;;;;;;6.37;4.40;;;;;;;3.00;48.06;98545.16;4441610;32;33765;-89
2023/03/12 00:45:12;;;;;;;8.32;4.72;;;;;;;3.00;48.06;98557.09;4438936;32;32767;-89
2023/03/12 00:47:40;;;;;;;7.05;4.57;;;;;;;3.45;47.86;98561.94;4436646;32;33789;-89
2023/03/12 00:50:08;;;;;;;9.27;5.07;;;;;;;2.97;48.85;98562.13;4436953;32;34651;-89
2023/03/12 00:52:35;;;;;;;8.57;4.87;;;;;;;3.15;48.89;98570.41;4436526;32;34573;-88
2023/03/12 00:55:04;;;;;;;8.35;4.95;;;;;;;2.88;49.28;98573.81;4426575;32;33924;-90
2023/03/12 00:57:31;;;;;;;8.60;4.55;;;;;;;2.96;49.36;98574.06;4416185;32;32816;-90
2023/03/12 00:59:58;;;;;;;6.15;4.68;;;;;;;3.23;49.04;98580.91;4441923;32;33454;-88
2023/03/12 01:02:26;;;;;;;7.72;5.72;;;;;;;3.09;49.34;98577.88;4436295;32;33938;-88
2023/03/12 01:04:53;;;;;;;7.47;4.80;;;;;;;2.83;49.77;98575.31;4404295;32;33311;-90
2023/03/12 01:07:21;;;;;;;8.23;5.18;;;;;;;3.24;48.58;98585.19;4432256;32;34652;-90
2023/03/12 01:09:49;;;;;;;7.65;5.45;;;;;;;2.73;49.79;98591.22;4436629;32;33139;-89
2023/03/12 01:12:17;;;;;;;8.73;5.78;;;;;;;2.60;50.86;98597.56;4440085;32;34586;-89
2023/03/12 01:14:44;;;;;;;8.43;5.43;;;;;;;3.07;49.04;98590.66;4436383;32;33898;-90
2023/03/12 01:17:12;;;;;;;7.35;5.12;;;;;;;3.19;49.00;98592.75;4436513;32;33332;-90
2023/03/12 01:19:39;;;;;;;8.48;5.40;;;;;;;2.81;49.67;98587.22;4436613;32;33270;-89
2023/03/12 01:22:07;;;;;;;8.80;5.45;;;;;;;2.76;49.71;98588.72;4414500;32;33189;-89
2023/03/12 01:24:34;;;;;;;8.18;5.72;;;;;;;2.82;50.10;98593.19;4436702;32;35034;-89
2023/03/12 01:27:02;;;;;;;9.65;5.20;;;;;;;3.16;48.91;98593.50;4436374;32;33624;-89
2023/03/12 01:29:30;;;;;;;8.13;5.20;;;;;;;2.83;50.25;98606.03;4436821;32;33166;-89
2023/03/12 01:31:58;;;;;;;8.43;5.20;;;;;;;2.49;50.91;98610.81;4436106;32;33891;-90
2023/03/12 01:34:25;;;;;;;9.95;5.45;;;;;;;2.71;50.32;98597.94;4437170;32;34109;-89
2023/03/12 01:36:54;;;;;;;7.70;5.40;;;;;;;2.25;52.17;98605.69;4443524;32;33702;-90
2023/03/12 01:39:21;;;;;;;8.88;6.10;;;;;;;2.65;51.22;98606.31;4432039;32;33012;-90
2023/03/12 01:41:49;;;;;;;10.23;5.85;;;;;;;2.52;51.56;98613.47;4437047;32;33737;-90
2023/03/12 01:44:16;;;;;;;10.45;6.45;;;;;;;2.80;51.21;98615.31;4436441;32;34206;-89
2023/03/12 01:46:47;;;;;;;7.28;5.53;;;;;;;2.92;50.99;98611.50;4431847;32;34540;-88
2023/03/12 01:49:17;;;;;;;8.80;5.85;;;;;;;2.52;51.67;98610.91;4436442;32;33410;-89
2023/03/12 01:52:02;;;;;;;10.00;5.68;;;;;;;2.72;51.36;98607.34;4435864;32;34801;-90
2023/03/12 01:54:35;;;;;;;7.90;5.40;;;;;;;2.28;52.41;98609.22;4442601;32;33739;-89
2023/03/12 01:57:05;;;;;;;8.93;5.75;;;;;;;2.73;51.68;98596.31;4422399;32;34654;-90
2023/03/12 01:59:38;;;;;;;9.93;6.30;;;;;;;2.78;51.72;98604.16;4428443;32;34146;-89
2023/03/12 02:02:07;;;;;;;9.95;5.85;;;;;;;2.82;51.47;98606.00;4427976;32;33746;-88
2023/03/12 02:04:35;;;;;;;8.52;6.03;;;;;;;3.15;50.90;98614.81;4428109;32;34236;-89
2023/03/12 02:07:12;;;;;;;8.73;6.00;;;;;;;2.96;50.98;98617.59;4427754;32;34537;-90
2023/03/12 02:09:43;;;;;;;8.68;5.70;;;;;;;2.29;52.60;98631.44;4436456;32;33273;-89
2023/03/12 02:12:10;;;;;;;7.80;5.50;;;;;;;2.96;51.33;98627.84;4423695;32;32409;-89
2023/03/12 02:14:38;;;;;;;8.50;6.12;;;;;;;3.30;50.40;98629.81;4432610;32;34164;-90
2023/03/12 02:17:06;;;;;;;8.80;6.07;;;;;;;3.09;50.85;98641.91;4436112;32;33960;-89
2023/03/12 02:19:50;;;;;;;11.30;7.35;;;;;;;2.67;51.96;98649.84;4422273;32;33008;-89
2023/03/12 02:22:19;;;;;;;9.55;6.55;;;;;;;2.85;51.61;98652.19;4429577;32;33934;-89
2023/03/12 02:24:52;;;;;;;11.68;7.05;;;;;;;2.81;51.73;98648.66;4427573;32;34071;-88
2023/03/12 02:27:20;;;;;;;11.07;6.70;;;;;;;2.59;52.61;98652.13;4416327;32;34616;-89
2023/03/12 02:29:48;;;;;;;9.55;6.53;;;;;;;2.50;52.95;98650.91;4440668;32;34319;-89
2023/03/12 02:32:22;;;;;;;10.82;7.00;;;;;;;2.61;53.05;98654.72;4428221;32;33349;-89
2023/03/12 02:34:50;;;;;;;11.05;7.80;;;;;;;2.37;53.47;98659.84;4428486;32;34121;-89
2023/03/12 02:37:18;;;;;;;11.70;7.35;;;;;;;2.32;53.88;98666.50;4427824;32;33686;-88
2023/03/12 02:40:04;;;;;;;10.95;8.23;;;;;;;2.54;53.11;98653.66;4444493;32;33402;-88
2023/03/12 02:42:33;;;;;;;10.50;7.35;;;;;;;2.31;54.12;98659.59;4428370;32;34748;-88
2023/03/12 02:45:01;;;;;;;12.18;7.22;;;;;;;2.31;54.16;98669.84;4435657;32;34161;-88
2023/03/12 02:47:28;;;;;;;12.93;8.40;;;;;;;2.57;53.46;98681.03;4430164;32;34293;-88
2023/03/12 02:49:56;;;;;;;11.35;7.60;;;;;;;2.26;53.99;98684.16;4438226;32;33116;-89
2023/03/12 02:52:23;;;;;;;9.93;7.50;;;;;;;2.78;52.69;98684.38;4435477;32;34795;-89
2023/03/12 02:54:51;;;;;;;12.05;8.10;;;;;;;2.92;52.34;98678.06;4437257;32;34109;-89
2023/03/12 02:57:18;;;;;;;11.52;8.55;;;;;;;2.18;54.34;98697.50;4439856;32;33952;-88
2023/03/12 02:59:46;;;;;;;12.63;8.82;;;;;;;1.84;55.59;98700.44;4415589;32;32881;-89
2023/03/12 03:02:14;;;;;;;11.12;8.55;;;;;;;2.39;54.12;98705.16;4427686;32;33778;-89
2023/03/12 03:04:42;;;;;;;12.13;8.10;;;;;;;2.47;54.01;98709.69;4435502;32;34635;-88
2023/03/12 03:07:09;;;;;;;11.80;7.97;;;;;;;2.46;54.05;98706.22;4436001;32;33598;-88
2023/03/12 03:09:37;;;;;;;11.55;8.77;;;;;;;2.76;52.81;98721.81;4439538;32;33224;-89
2023/03/12 03:12:05;;;;;;;13.82;9.50;;;;;;;2.13;54.79;98728.84;4439550;32;34862;-87
2023/03/12 03:14:32;;;;;;;13.75;8.88;;;;;;;2.10;54.75;98726.16;4416507;32;34007;-88
2023/03/12 03:17:00;;;;;;;14.10;9.32;;;;;;;2.23;54.18;98724.94;4431051;32;35241;-88
2023/03/12 03:19:27;;;;;;;14.40;9.27;;;;;;;2.20;54.04;98730.84;4435193;32;33467;-87
2023/03/12 03:21:55;;;;;;;13.32;9.18;;;;;;;2.05;54.54;98738.78;4436458;32;33935;-87
2023/03/12 03:24:22;;;;;;;13.15;8.88;;;;;;;2.26;53.95;98743.84;4435838;32;34202;-89
2023/03/12 03:26:50;;;;;;;13.62;9.35;;;;;;;2.17;54.42;98741.81;4440066;32;33627;-88
2023/03/12 03:29:18;;;;;;;13.32;9.40;;;;;;;2.06;54.86;98739.66;4436753;32;34379;-87
2023/03/12 03:31:45;;;;;;;13.13;9.27;;;;;;;1.48;56.62;98745.84;4435880;32;33814;-87
2023/03/12 03:34:13;;;;;;;13.50;9.32;;;;;;;2.00;54.99;98745.38;4434987;32;33690;-86
2023/03/12 03:36:40;;;;;;;13.50;9.18;;;;;;;2.19;54.57;98754.66;4436171;32;33721;-87
2023/03/12 03:39:08;;;;;;;12.75;9.00;;;;;;;1.38;56.58;98762.44;4435547;32;34152;-87
2023/03/12 03:41:36;;;;;;;13.13;9.20;;;;;;;1.87;55.36;98769.59;4435399;32;34829;-86
2023/03/12 03:44:04;;;;;;;16.48;9.85;;;;;;;1.33;57.01;98771.59;4435761;32;34246;-89
2023/03/12 03:46:37;;;;;;;13.10;8.98;;;;;;;1.79;55.82;98775.22;4435515;32;33555;-89
2023/03/12 03:49:05;;;;;;;13.70;9.25;;;;;;;2.25;53.87;98757.47;4430329;32;33384;-89
2023/03/12 03:51:33;;;;;;;12.43;8.88;;;;;;;1.72;55.29;98768.09;4425960;32;33088;-87
2023/03/12 03:54:01;;;;;;;15.70;10.23;;;;;;;1.95;54.64;98778.44;4435679;32;34171;-88
2023/03/12 03:56:29;;;;;;;13.07;8.82;;;;;;;2.04;54.21;98774.50;4435147;32;33609;-89
2023/03/12 03:58:57;;;;;;;12.63;8.73;;;;;;;2.54;53.04;98766.25;4435157;32;33190;-88
2023/03/12 04:01:25;;;;;;;12.40;8.85;;;;;;;2.60;52.40;98760.47;4423818;32;34659;-89
2023/03/12 04:03:54;;;;;;;12.52;8.75;;;;;;;2.09;53.20;98755.12;4434698;32;34140;-88
2023/03/12 04:06:21;;;;;;;13.80;8.88;;;;;;;2.64;52.05;98758.09;4434933;32;33954;-88
2023/03/12 04:08:49;;;;;;;12.10;8.35;;;;;;;2.10;53.62;98762.84;4432576;32;33598;-89
2023/03/12 04:11:19;;;;;;;14.52;9.60;;;;;;;2.71;52.04;98769.44;4435148;32;33985;-88
2023/03/12 04:13:47;;;;;;;14.68;9.15;;;;;;;2.06;53.66;98778.88;4429199;32;34147;-89
2023/03/12 04:16:15;;;;;;;12.93;9.52;;;;;;;1.70;55.14;98791.00;4437591;32;33956;-89
2023/03/12 04:18:43;;;;;;;14.18;9.75;;;;;;;2.28;52.89;98783.16;4421455;32;34525;-87
2023/03/12 04:21:12;;;;;;;15.07;9.90;;;;;;;1.79;54.64;98791.41;4427707;32;34419;-87
2023/03/12 04:23:40;;;;;;;14.18;9.88;;;;;;;2.19;53.67;98793.00;4431576;32;33814;-89
2023/03/12 04:26:08;;;;;;;14.38;9.90;;;;;;;2.50;52.57;98804.44;4435147;32;34007;-88
2023/03/12 04:28:36;;;;;;;12.73;9.40;;;;;;;2.08;53.96;98812.16;4426770;32;33497;-89
2023/03/12 04:31:06;;;;;;;14.13;10.15;;;;;;;1.86;54.13;98813.88;4434639;32;34294;-88
2023/03/12 04:33:35;;;;;;;15.77;10.48;;;;;;;1.29;56.32;98831.03;4434944;32;34999;-89
2023/03/12 04:36:04;;;;;;;15.95;10.55;;;;;;;0.93;57.72;98841.31;4434832;32;34025;-88
2023/03/12 04:38:32;;;;;;;15.25;10.60;;;;;;;0.82;58.42;98850.16;4422599;32;34348;-87
2023/03/12 04:41:01;;;;;;;15.63;10.50;;;;;;;0.73;58.51;98847.22;4435025;32;33957;-88
2023/03/12 04:43:29;;;;;;;16.83;10.60;;;;;;;1.23;57.11;98856.28;4434857;32;35023;-88
2023/03/12 04:45:57;;;;;;;16.10;10.20;;;;;;;0.77;58.17;98861.84;4429029;32;33690;-88
2023/03/12 04:48:25;;;;;;;16.52;10.82;;;;;;;1.21;56.88;98863.88;4434773;32;33445;-89
2023/03/12 04:50:53;;;;;;;18.17;10.82;;;;;;;0.78;57.74;98868.69;4413851;32;33946;-89
2023/03/12 04:53:21;;;;;;;16.62;10.65;;;;;;;1.03;58.04;98872.37;4428370;32;34165;-89
2023/03/12 04:55:51;;;;;;;14.25;10.52;;;;;;;1.12;57.73;98871.09;4440675;32;33959;-88
2023/03/12 04:58:19;;;;;;;15.40;10.98;;;;;;;1.32;56.59;98864.31;4434320;32;33613;-89
2023/03/12 05:00:48;;;;;;;17.50;10.73;;;;;;;1.17;56.93;98871.31;4434263;32;34868;-89
2023/03/12 05:03:16;;;;;;;15.60;10.18;;;;;;;1.46;56.27;98870.94;4423759;32;34886;-89
2023/03/12 05:05:44;;;;;;;15.75;10.45;;;;;;;1.40;55.86;98869.78;4434189;32;34485;-89
2023/03/12 05:08:12;;;;;;;13.93;10.45;;;;;;;1.52;55.97;98872.87;4435108;32;34338;-89
2023/03/12 05:10:39;;;;;;;17.02;10.43;;;;;;;1.82;54.87;98877.53;4434089;32;33958;-87
2023/03/12 05:13:18;;;;;;;15.05;10.57;;;;;;;1.24;56.73;98875.88;4434465;32;34019;-88
2023/03/12 05:15:49;;;;;;;14.63;9.98;;;;;;;1.10;57.22;98874.38;4421084;32;34816;-88
2023/03/12 05:18:19;;;;;;;15.90;10.80;;;;;;;1.44;55.90;98870.00;4424268;32;33255;-88
2023/03/12 05:20:57;;;;;;;17.12;10.93;;;;;;;1.49;56.16;98880.41;4436311;32;34683;-88
2023/03/12 05:23:24;;;;;;;12.88;9.63;;;;;;;0.95;58.05;98887.34;4436952;32;34374;-90
2023/03/12 05:25:52;;;;;;;14.77;10.02;;;;;;;1.44;56.44;98887.87;4436393;32;33859;-89
2023/03/12 05:28:20;;;;;;;14.95;10.43;;;;;;;1.75;55.50;98891.78;4436887;32;33540;-88
2023/03/12 05:30:48;;;;;;;15.27;9.93;;;;;;;1.18;56.54;98890.94;4436342;32;33876;-88
2023/03/12 05:33:16;;;;;;;16.17;11.07;;;;;;;1.60;55.99;98899.66;4431387;32;33719;-87
2023/03/12 05:35:43;;;;;;;16.70;10.65;;;;;;;1.75;55.69;98908.78;4436420;32;33753;-86
2023/03/12 05:38:10;;;;;;;15.32;11.10;;;;;;;0.90;58.08;98909.22;4431247;32;32787;-88
2023/03/12 05:40:38;;;;;;;14.18;10.23;;;;;;;1.30;56.79;98919.59;4436663;32;33842;-89
2023/03/12 05:43:06;;;;;;;15.90;11.10;;;;;;;1.00;57.46;98916.50;4436533;32;34866;-87
2023/03/12 05:45:33;;;;;;;18.23;10.20;;;;;;;1.41;56.51;98917.53;4436403;32;33770;-89
2023/03/12 05:48:01;;;;;;;16.05;11.18;;;;;;;1.53;56.36;98920.63;4437097;32;33140;-89
2023/03/12 05:50:29;;;;;;;14.95;10.50;;;;;;;1.64;56.08;98921.97;4436729;32;33950;-90
2023/03/12 05:52:56;;;;;;;17.37;11.50;;;;;;;1.52;56.79;98936.75;4436213;32;33604;-90
2023/03/12 05:55:24;;;;;;;14.27;10.23;;;;;;;1.93;54.83;98945.34;4428509;32;33725;-89
2023/03/12 05:57:53;;;;;;;15.05;10.35;;;;;;;1.40;56.74;98944.75;4435899;32;32940;-88
2023/03/12 06:00:20;;;;;;;23.58;14.23;;;;;;;1.63;55.42;98952.53;4436154;32;33544;-87
2023/03/12 06:02:50;;;;;;;18.48;11.38;;;;;;;1.31;56.78;98951.97;4433643;32;34953;-88
2023/03/12 06:05:18;;;;;;;17.77;11.40;;;;;;;1.34;56.91;98957.22;4416480;32;33868;-87
2023/03/12 06:07:45;;;;;;;16.40;10.95;;;;;;;1.51;56.45;98957.09;4436152;32;33446;-89
2023/03/12 06:10:13;;;;;;;17.98;11.75;;;;;;;1.71;55.46;98961.44;4435934;32;34776;-88
2023/03/12 06:12:41;;;;;;;17.70;10.85;;;;;;;1.55;55.62;98964.09;4437450;32;34157;-89
2023/03/12 06:15:09;;;;;;;15.77;10.48;;;;;;;1.30;56.80;98968.09;4425070;32;33324;-88
2023/03/12 06:17:37;;;;;;;15.63;10.82;;;;;;;1.58;55.96;98974.47;4440388;32;33455;-88
2023/03/12 06:20:05;;;;;;;15.85;10.60;;;;;;;1.59;56.16;98981.31;4436214;32;34039;-86
2023/03/12 06:22:33;;;;;;;15.90;10.05;;;;;;;1.57;56.08;98982.94;4435967;32;34107;-88
2023/03/12 06:25:01;;;;;;;17.27;11.05;;;;;;;1.77;55.24;98991.50;4437657;32;33585;-86
2023/03/12 06:27:28;;;;;;;15.13;10.73;;;;;;;1.55;56.22;98999.88;4437774;32;34018;-89
2023/03/12 06:29:56;;;;;;;17.75;11.45;;;;;;;1.86;55.68;98997.91;4438108;32;34666;-87
2023/03/12 06:32:24;;;;;;;14.82;11.32;;;;;;;1.82;55.60;99000.22;4421669;32;33395;-88
2023/03/12 06:34:52;;;;;;;15.50;10.88;;;;;;;1.66;55.34;99004.66;4436249;32;34750;-89
2023/03/12 06:37:19;;;;;;;16.48;10.55;;;;;;;1.46;56.43;99006.31;4435828;32;33419;-89
2023/03/12 06:39:47;;;;;;;16.30;10.95;;;;;;;1.64;55.15;99008.84;4436373;32;34598;-88
2023/03/12 06:42:18;;;;;;;14.77;10.32;;;;;;;1.46;55.96;99015.66;4426872;32;33721;-88
2023/03/12 06:44:45;;;;;;;15.88;10.40;;;;;;;1.76;55.20;99005.97;4440801;32;33930;-87
2023/03/12 06:47:13;;;;;;;15.75;11.20;;;;;;;1.80;55.43;99014.62;4435705;32;33763;-89
2023/03/12 06:49:43;;;;;;;15.63;10.98;;;;;;;1.48;56.21;99018.28;4435840;32;34063;-89
2023/03/12 06:52:11;;;;;;;17.50;10.77;;;;;;;1.44;56.45;99015.59;4435220;32;35078;-87
2023/03/12 06:54:39;;;;;;;15.07;10.45;;;;;;;1.99;54.29;99018.87;4436001;32;34126;-89
2023/03/12 06:57:06;;;;;;;14.93;10.35;;;;;;;1.99;54.26;99022.31;4425633;32;33073;-87
2023/03/12 06:59:33;;;;;;;14.90;10.73;;;;;;;2.19;53.96;99028.28;4430121;32;34028;-86
2023/03/12 07:02:01;;;;;;;14.30;9.95;;;;;;;1.86;54.71;99031.13;4430099;32;34091;-87
2023/03/12 07:04:29;;;;;;;16.52;10.20;;;;;;;2.35;53.49;99035.84;4435543;32;33696;-87
2023/03/12 07:06:56;;;;;;;15.60;10.63;;;;;;;2.54;52.39;99036.59;4435525;32;34270;-87
2023/03/12 07:09:24;;;;;;;16.85;10.35;;;;;;;2.24;53.56;99047.28;4436721;32;35078;-88
2023/03/12 07:11:51;;;;;;;15.45;10.07;;;;;;;2.59;52.88;99045.38;4423238;32;34686;-89
2023/03/12 07:14:20;;;;;;;13.88;9.70;;;;;;;2.57;52.99;99047.84;4435341;32;33853;-88
2023/03/12 07:16:47;;;;;;;15.90;10.55;;;;;;;2.62;52.35;99046.38;4435826;32;33312;-88
2023/03/12 07:19:15;;;;;;;15.07;9.93;;;;;;;2.32;53.03;99051.06;4439961;32;34494;-87
2023/03/12 07:21:42;;;;;;;14.82;9.65;;;;;;;2.12;53.81;99051.84;4435767;32;35318;-87
2023/03/12 07:24:10;;;;;;;15.85;10.38;;;;;;;2.47;52.75;99049.97;4428040;32;34038;-88
2023/03/12 07:26:38;;;;;;;14.80;10.35;;;;;;;2.16;53.29;99048.66;4435325;32;32949;-87
2023/03/12 07:29:06;;;;;;;15.57;10.38;;;;;;;2.46;53.61;99058.44;4435616;32;33773;-87
2023/03/12 07:31:33;;;;;;;13.38;9.77;;;;;;;2.26;53.10;99061.00;4435369;32;35080;-88
2023/03/12 07:34:01;;;;;;;13.85;9.88;;;;;;;2.46;53.03;99058.44;4435798;32;34706;-89
2023/03/12 07:36:29;;;;;;;12.88;9.90;;;;;;;2.62;52.63;99058.31;4440653;32;33189;-87
2023/03/12 07:38:57;;;;;;;13.85;9.40;;;;;;;2.66;51.88;99065.28;4435062;32;34055;-88
2023/03/12 07:41:25;;;;;;;13.40;9.60;;;;;;;2.61;52.64;99069.31;4435144;32;33890;-82
2023/03/12 07:43:52;;;;;;;13.13;9.77;;;;;;;2.59;52.05;99069.28;4435577;32;33944;-89
2023/03/12 07:46:20;;;;;;;13.77;9.55;;;;;;;2.83;52.14;99071.09;4435254;32;33248;-87
2023/03/12 07:48:47;;;;;;;13.85;10.10;;;;;;;2.98;51.29;99070.87;4435568;32;34005;-89
2023/03/12 07:51:15;;;;;;;14.48;10.40;;;;;;;2.83;51.88;99066.84;4435332;32;34819;-90
2023/03/12 07:53:43;;;;;;;14.00;10.48;;;;;;;3.15;51.04;99072.44;4437552;32;32101;-90
2023/03/12 07:56:10;;;;;;;13.27;9.75;;;;;;;2.81;52.23;99073.63;4419197;32;32355;-92
2023/03/12 07:58:38;;;;;;;11.57;9.25;;;;;;;2.94;51.83;99075.00;4435422;32;34889;-90
2023/03/12 08:01:06;;;;;;;13.27;9.68;;;;;;;3.36;50.48;99073.28;4435160;32;34927;-91
2023/03/12 08:03:34;;;;;;;12.30;8.90;;;;;;;3.28;50.58;99074.66;4437155;32;33424;-91
2023/03/12 08:06:03;;;;;;;12.63;9.32;;;;;;;3.47;49.79;99077.97;4423355;32;33357;-92
2023/03/12 08:08:31;;;;;;;13.32;9.55;;;;;;;3.24;50.43;99079.63;4432914;32;33205;-90
2023/03/12 08:10:59;;;;;;;12.00;9.45;;;;;;;3.10;50.76;99079.03;4427166;32;34150;-90
2023/03/12 08:13:26;;;;;;;12.63;8.93;;;;;;;3.41;48.65;99076.91;4434983;32;33437;-90
2023/03/12 08:15:54;;;;;;;12.43;8.90;;;;;;;3.37;49.42;99072.50;4436034;32;33450;-92
2023/03/12 08:18:23;;;;;;;13.62;8.77;;;;;;;3.29;49.63;99084.09;4422741;32;34275;-91
2023/03/12 08:20:52;;;;;;;12.13;8.65;;;;;;;3.93;47.97;99080.59;4434612;32;33822;-90
2023/03/12 08:23:21;;;;;;;11.60;7.97;;;;;;;3.65;48.60;99081.25;4426789;32;33957;-88
2023/03/12 08:25:49;;;;;;;11.43;8.70;;;;;;;3.59;47.79;99083.56;4456220;26;33126;-90
2023/03/12 08:28:17;;;;;;;10.45;8.05;;;;;;;3.94;47.07;99076.34;4450114;32;34428;-91
2023/03/12 08:30:50;;;;;;;11.35;8.00;;;;;;;4.23;46.78;99080.84;4450165;32;34801;-91
2023/03/12 08:33:18;;;;;;;9.95;7.93;;;;;;;4.56;45.37;99085.47;4450563;32;34277;-89
2023/03/12 08:35:46;;;;;;;10.80;7.22;;;;;;;4.41;45.81;99092.63;4450102;32;33056;-90
2023/03/12 08:38:14;;;;;;;9.25;6.93;;;;;;;4.10;44.76;99086.37;4448533;32;34053;-90
2023/03/12 08:40:41;;;;;;;11.60;8.45;;;;;;;4.56;44.14;99093.16;4449026;32;34199;-89
2023/03/12 08:43:09;;;;;;;10.00;6.97;;;;;;;4.08;45.13;99096.56;4451283;32;34692;-91
2023/03/12 08:45:36;;;;;;;10.32;6.97;;;;;;;4.57;44.28;99090.62;4452182;32;33550;-90
2023/03/12 08:48:05;;;;;;;10.70;7.62;;;;;;;4.96;43.41;99091.94;4450352;32;34708;-88
2023/03/12 08:50:32;;;;;;;8.80;5.75;;;;;;;5.13;42.21;99090.84;4449798;32;34023;-88
2023/03/12 08:53:00;;;;;;;7.35;5.00;;;;;;;5.33;41.54;99084.63;4449995;32;32042;-90
2023/03/12 08:55:27;;;;;;;8.25;5.07;;;;;;;5.05;40.07;99082.88;4450955;32;33361;-91
2023/03/12 08:57:55;;;;;;;9.07;5.20;;;;;;;5.65;39.63;99078.78;4452396;32;33471;-90
2023/03/12 09:00:23;;;;;;;8.98;5.12;;;;;;;5.18;39.93;99083.28;4450549;32;34931;-89
2023/03/12 09:02:52;;;;;;;8.27;5.80;;;;;;;5.73;39.73;99085.91;4450779;32;34514;-89
2023/03/12 09:05:20;;;;;;;10.50;6.75;;;;;;;5.47;40.54;99079.06;4451979;32;34148;-90
2023/03/12 09:07:48;;;;;;;8.73;6.47;;;;;;;5.57;40.83;99087.13;4437691;32;32501;-90
2023/03/12 09:10:17;;;;;;;8.65;5.78;;;;;;;5.53;40.45;99081.81;4444673;32;33942;-89
2023/03/12 09:12:44;;;;;;;10.80;6.20;;;;;;;5.00;41.44;99083.53;4438329;32;33920;-88
2023/03/12 09:15:12;;;;;;;9.15;6.00;;;;;;;5.62;40.73;99085.56;4450076;32;33463;-87
2023/03/12 09:17:40;;;;;;;10.25;6.20;;;;;;;5.54;40.25;99081.00;4449506;32;34714;-88
2023/03/12 09:20:12;;;;;;;10.15;6.07;;;;;;;5.81;40.53;99084.44;4451448;32;34742;-87
2023/03/12 09:22:41;;;;;;;9.85;6.30;;;;;;;5.40;40.93;99092.56;4450222;32;34021;-87
2023/03/12 09:25:10;;;;;;;9.82;5.97;;;;;;;5.93;40.07;99083.94;4451201;32;32141;-88
2023/03/12 09:27:42;;;;;;;8.07;5.32;;;;;;;5.50;40.48;99079.16;4450536;32;34685;-88
2023/03/12 09:30:15;;;;;;;8.18;5.32;;;;;;;5.45;39.97;99089.28;4450376;32;33819;-89
2023/03/12 09:32:46;;;;;;;8.88;5.50;;;;;;;5.50;39.59;99081.75;4451860;32;33708;-88
2023/03/12 09:35:14;;;;;;;8.52;5.10;;;;;;;5.81;39.40;99084.44;4445345;32;33422;-88
2023/03/12 09:37:42;;;;;;;8.43;5.47;;;;;;;5.90;38.43;99082.94;4450551;32;33821;-90
2023/03/12 09:40:15;;;;;;;9.75;5.65;;;;;;;5.79;39.24;99085.19;4451188;32;34130;-91
2023/03/12 09:42:55;;;;;;;7.35;5.03;;;;;;;5.44;39.52;99081.53;4437239;32;32519;-90
2023/03/12 09:45:29;;;;;;;9.27;6.18;;;;;;;6.40;38.58;99088.72;4443668;32;33599;-89
2023/03/12 09:48:03;;;;;;;9.02;5.60;;;;;;;6.09;38.46;99091.28;4436943;32;33215;-90
2023/03/12 09:50:39;;;;;;;8.38;5.78;;;;;;;6.32;38.19;99094.50;4437377;32;34861;-90
2023/03/12 09:53:29;;;;;;;7.70;5.28;;;;;;;6.56;38.73;99088.34;4449877;32;33566;-90
2023/03/12 09:55:57;;;;;;;8.30;5.32;;;;;;;6.26;37.79;99078.91;4452077;32;33359;-90
2023/03/12 09:58:31;;;;;;;7.22;5.12;;;;;;;7.20;37.11;99069.38;4428927;32;33540;-88
2023/03/12 10:01:24;;;;;;;9.50;4.80;;;;;;;7.13;36.30;99067.47;4447627;32;34267;-90
2023/03/12 10:03:52;;;;;;;6.60;4.35;;;;;;;7.03;35.65;99079.25;4442822;32;32954;-90
2023/03/12 10:06:22;;;;;;;7.45;4.80;;;;;;;7.52;35.07;99066.69;4450068;32;33665;-90
2023/03/12 10:09:02;;;;;;;7.20;4.95;;;;;;;6.97;35.73;99080.78;4450135;32;34818;-88
2023/03/12 10:11:51;;;;;;;9.35;4.62;;;;;;;6.69;35.43;99071.50;4444567;32;33065;-91
2023/03/12 10:14:28;;;;;;;7.60;4.90;;;;;;;7.00;35.26;99080.88;4445716;32;33088;-91
2023/03/12 10:17:38;;;;;;;8.27;4.55;;;;;;;6.40;36.05;99081.84;4450539;32;33480;-90
2023/03/12 10:20:49;;;;;;;8.55;5.00;;;;;;;6.86;35.74;99072.81;4454315;32;33783;-89
2023/03/12 10:23:56;;;;;;;6.82;4.18;;;;;;;7.06;34.19;99061.28;4441955;32;34183;-90
2023/03/12 10:26:25;;;;;;;8.55;4.15;;;;;;;7.42;34.24;99069.88;4422851;32;33387;-91
2023/03/12 10:28:59;;;;;;;7.37;4.30;;;;;;;7.11;33.29;99078.59;4447526;32;33059;-93
2023/03/12 10:31:42;;;;;;;6.65;4.20;;;;;;;7.18;32.63;99094.25;4447191;32;33498;-94
2023/03/12 10:34:48;;;;;;;7.68;4.37;;;;;;;7.78;31.99;99072.44;4447181;32;32427;-93
2023/03/12 10:37:24;;;;;;;8.00;4.45;;;;;;;7.72;32.69;99078.31;4432373;32;34324;-93
2023/03/12 10:39:54;;;;;;;7.15;4.25;;;;;;;7.74;31.81;99087.00;4436016;32;34033;-94
2023/03/12 10:42:27;;;;;;;7.25;4.62;;;;;;;8.05;31.49;99077.34;4422388;32;34276;-94
2023/03/12 10:45:00;;;;;;;7.95;5.25;;;;;;;8.21;34.16;99088.84;4433714;32;33960;-95
2023/03/12 10:47:33;;;;;;;8.82;5.22;;;;;;;8.10;33.80;99085.16;4449902;32;33495;-91
2023/03/12 10:50:13;;;;;;;5.97;4.25;;;;;;;8.31;33.40;99098.53;4449925;32;34434;-92
2023/03/12 10:52:42;;;;;;;7.97;5.15;;;;;;;8.26;32.41;99090.72;4436308;32;33243;-90
2023/03/12 10:55:19;;;;;;;8.55;4.75;;;;;;;8.23;31.80;99090.62;4424057;32;33269;-92
2023/03/12 10:57:47;;;;;;;9.35;5.60;;;;;;;8.48;31.65;99086.84;4434042;32;35668;-92
2023/03/12 11:00:22;;;;;;;7.30;4.62;;;;;;;8.75;33.03;99093.41;4446524;32;34346;-96
2023/03/12 11:02:59;;;;;;;6.62;3.90;;;;;;;8.82;32.91;99092.66;4419314;32;32808;-93
2023/03/12 11:05:47;;;;;;;6.20;3.65;;;;;;;9.24;29.73;99084.81;4423347;32;34416;-94
2023/03/12 11:08:25;;;;;;;6.20;3.78;;;;;;;8.91;29.74;99092.00;4446584;32;33807;-94
2023/03/12 11:10:55;;;;;;;5.68;3.35;;;;;;;8.81;29.98;99090.06;4435215;32;32649;-92
2023/03/12 11:13:40;;;;;;;6.25;3.62;;;;;;;9.08;28.69;99085.38;4440776;32;33147;-92
2023/03/12 11:16:17;;;;;;;4.85;2.80;;;;;;;8.99;27.43;99083.50;4449412;32;34014;-91
2023/03/12 11:19:00;;;;;;;6.70;3.50;;;;;;;9.11;27.18;99090.62;4449791;32;33805;-92
2023/03/12 11:21:37;;;;;;;6.15;2.75;;;;;;;9.42;26.20;99086.81;4434891;32;31982;-92
2023/03/12 11:24:12;;;;;;;4.35;2.40;;;;;;;9.24;26.00;99082.22;4433943;32;32784;-91
2023/03/12 11:26:55;;;;;;;8.05;3.95;;;;;;;8.94;25.77;99087.75;4428341;32;33033;-92
2023/03/12 11:29:26;;;;;;;5.50;3.03;;;;;;;9.14;25.88;99074.28;4449569;32;34492;-92
2023/03/12 11:32:17;;;;;;;5.68;3.08;;;;;;;9.11;26.54;99079.41;4436925;32;33733;-93
2023/03/12 11:34:48;;;;;;;5.65;3.22;;;;;;;9.55;24.42;99087.91;4435627;32;32608;-92
2023/03/12 11:37:48;;;;;;;7.47;4.22;;;;;;;9.32;26.02;99078.87;4437332;32;35006;-93
2023/03/12 11:40:50;;;;;;;6.72;3.70;;;;;;;9.60;26.43;99073.28;4450253;32;34269;-91
2023/03/12 11:43:23;;;;;;;5.30;2.87;;;;;;;9.23;27.08;99075.28;4436039;32;34183;-90
2023/03/12 11:46:26;;;;;;;6.75;4.10;;;;;;;9.40;28.77;99072.13;4416577;32;32814;-92
2023/03/12 11:48:57;;;;;;;5.43;2.72;;;;;;;9.53;25.05;99076.63;4423352;32;33600;-89